Time;durP1;ratioP1;P1;durP2;ratioP2;P2;SDS_P1;SDS_P2;PMS_P1;PMS_P2;Temp;Humidity;BMP_temperature;BMP_pressure;BME280_temperature;BME280_humidity;BME280_pressure;Samples;Min_cycle;Max_cycle;Signal;HPM_P1;HPM_P2
2021/06/10 00:02:16;;;;;;;12.93;11.73;;;15.70;99.90;;;;;;6295615;22;20176;-80
2021/06/10 00:04:42;;;;;;;11.10;10.00;;;15.70;99.90;;;;;;6296355;22;20176;-78
2021/06/10 00:07:09;;;;;;;11.13;10.03;;;15.70;99.90;;;;;;6295918;22;20172;-79
2021/06/10 00:09:36;;;;;;;12.30;11.03;;;15.60;99.90;;;;;;6295719;22;20172;-76
2021/06/10 00:12:03;;;;;;;12.70;11.23;;;15.60;99.90;;;;;;6295899;22;20175;-76
2021/06/10 00:14:29;;;;;;;11.80;10.70;;;15.60;99.90;;;;;;6295989;22;20165;-78
2021/06/10 00:16:55;;;;;;;11.37;10.27;;;15.60;99.90;;;;;;6294733;22;20172;-80
2021/06/10 00:19:23;;;;;;;12.27;11.07;;;15.50;99.90;;;;;;6295880;22;20249;-76
2021/06/10 00:21:49;;;;;;;13.63;11.63;;;15.50;99.90;;;;;;6295259;22;20172;-75
2021/06/10 00:24:16;;;;;;;12.67;11.50;;;15.50;99.90;;;;;;6294970;22;20206;-76
2021/06/10 00:26:42;;;;;;;12.43;11.23;;;15.50;99.90;;;;;;6295660;22;20172;-75
2021/06/10 00:29:09;;;;;;;14.73;12.03;;;15.50;99.90;;;;;;6293939;22;20700;-78
2021/06/10 00:31:35;;;;;;;13.87;12.23;;;15.40;99.90;;;;;;6295028;22;20279;-78
2021/06/10 00:34:02;;;;;;;12.60;11.40;;;15.40;99.90;;;;;;6294942;22;20191;-80
2021/06/10 00:36:29;;;;;;;12.73;11.43;;;15.40;99.90;;;;;;6295013;22;20698;-80
2021/06/10 00:38:56;;;;;;;12.13;10.90;;;15.40;99.90;;;;;;6294586;22;20192;-75
2021/06/10 00:41:22;;;;;;;12.20;10.90;;;15.30;99.90;;;;;;6295064;22;20180;-76
2021/06/10 00:43:49;;;;;;;11.47;10.33;;;15.30;99.90;;;;;;6294637;22;20172;-78
2021/06/10 00:46:16;;;;;;;12.43;11.17;;;15.30;99.90;;;;;;6294322;22;20172;-76
2021/06/10 00:48:42;;;;;;;12.87;11.47;;;15.20;99.90;;;;;;6295629;22;20172;-79
2021/06/10 00:51:10;;;;;;;15.80;11.93;;;15.20;99.90;;;;;;6294803;22;20164;-79
2021/06/10 00:53:37;;;;;;;12.50;11.23;;;15.20;99.90;;;;;;6293597;22;20876;-79
2021/06/10 00:56:05;;;;;;;11.80;10.60;;;15.10;99.90;;;;;;6294957;22;20183;-76
2021/06/10 00:58:32;;;;;;;11.00;9.90;;;15.10;99.90;;;;;;6295148;22;20795;-78
2021/06/10 01:01:00;;;;;;;11.33;10.13;;;15.10;99.90;;;;;;6293686;22;20192;-80
2021/06/10 01:03:26;;;;;;;11.87;10.67;;;15.10;99.90;;;;;;6294485;22;20180;-76
2021/06/10 01:05:58;;;;;;;10.70;9.60;;;15.10;99.90;;;;;;6294145;22;20176;-79
2021/06/10 01:08:33;;;;;;;11.00;9.90;;;15.10;99.90;;;;;;6294267;22;20179;-78
2021/06/10 01:11:13;;;;;;;11.80;10.57;;;15.00;99.90;;;;;;6293967;22;20563;-80
2021/06/10 01:13:49;;;;;;;11.87;10.67;;;15.00;99.90;;;;;;6294024;22;20174;-79
2021/06/10 01:16:19;;;;;;;11.07;9.93;;;15.00;99.90;;;;;;6294708;22;20167;-78
2021/06/10 01:18:47;;;;;;;11.43;10.33;;;15.00;99.90;;;;;;6295145;22;20184;-77
2021/06/10 01:21:15;;;;;;;15.33;13.17;;;15.00;99.90;;;;;;6293310;22;20172;-79
2021/06/10 01:24:01;;;;;;;20.57;15.27;;;15.00;99.90;;;;;;6294529;22;20172;-79
2021/06/10 01:26:35;;;;;;;13.20;11.90;;;15.00;99.90;;;;;;6294316;22;20294;-77
2021/06/10 01:29:06;;;;;;;14.83;13.33;;;15.00;99.90;;;;;;6293769;22;20245;-77
2021/06/10 01:31:33;;;;;;;15.97;14.00;;;14.90;99.90;;;;;;6294072;22;20171;-76
2021/06/10 01:34:03;;;;;;;17.67;15.87;;;14.90;99.90;;;;;;6294261;22;20183;-79
2021/06/10 01:36:32;;;;;;;16.10;14.33;;;14.90;99.90;;;;;;6294411;22;20195;-79
2021/06/10 01:39:01;;;;;;;20.90;17.20;;;14.90;99.90;;;;;;6294680;22;20183;-80
2021/06/10 01:41:29;;;;;;;16.07;14.47;;;14.90;99.90;;;;;;6293859;22;20176;-79
2021/06/10 01:43:57;;;;;;;20.47;16.23;;;14.90;99.90;;;;;;6294364;22;20171;-79
2021/06/10 01:46:26;;;;;;;18.93;17.03;;;15.00;99.90;;;;;;6294846;22;20176;-78
2021/06/10 01:48:53;;;;;;;17.47;15.37;;;14.90;99.90;;;;;;6293956;22;20168;-79
2021/06/10 01:51:22;;;;;;;18.97;16.70;;;14.90;99.90;;;;;;6294394;22;20183;-79
2021/06/10 01:53:49;;;;;;;17.40;15.60;;;14.90;99.90;;;;;;6294756;22;20179;-79
2021/06/10 01:56:17;;;;;;;15.00;13.47;;;14.90;99.90;;;;;;6293986;22;20172;-80
2021/06/10 01:58:45;;;;;;;15.67;14.17;;;14.90;99.90;;;;;;6294989;22;20164;-79
2021/06/10 02:01:14;;;;;;;14.17;12.67;;;14.80;99.90;;;;;;6293861;22;20217;-80
2021/06/10 02:03:43;;;;;;;15.20;13.60;;;14.80;99.90;;;;;;6294720;22;20203;-77
2021/06/10 02:06:09;;;;;;;14.03;12.57;;;14.80;99.90;;;;;;6293651;22;20168;-78
2021/06/10 02:08:38;;;;;;;14.30;12.70;;;14.80;99.90;;;;;;6294230;22;20172;-78
2021/06/10 02:11:04;;;;;;;13.33;11.93;;;14.80;99.90;;;;;;6293331;22;20772;-77
2021/06/10 02:13:32;;;;;;;14.97;13.43;;;14.80;99.90;;;;;;6294576;22;20180;-76
2021/06/10 02:16:03;;;;;;;14.13;12.63;;;14.70;99.90;;;;;;6294948;22;20182;-76
2021/06/10 02:18:30;;;;;;;19.87;16.23;;;14.70;99.90;;;;;;6294706;22;20199;-76
2021/06/10 02:21:00;;;;;;;17.87;15.97;;;14.70;99.90;;;;;;6293554;22;20959;-77
2021/06/10 02:23:27;;;;;;;19.33;17.23;;;14.70;99.90;;;;;;6294567;22;20164;-76
2021/06/10 02:25:53;;;;;;;20.03;17.83;;;14.70;99.90;;;;;;6294641;22;20176;-75
2021/06/10 02:28:19;;;;;;;17.10;15.30;;;14.70;99.90;;;;;;6294834;22;20180;-75
2021/06/10 02:30:46;;;;;;;19.17;17.03;;;14.80;99.90;;;;;;6293976;22;20203;-77
2021/06/10 02:33:12;;;;;;;18.27;16.20;;;14.70;99.90;;;;;;6294687;22;20225;-79
2021/06/10 02:35:38;;;;;;;19.70;16.37;;;14.70;99.90;;;;;;6294114;22;20541;-77
2021/06/10 02:38:06;;;;;;;19.30;17.20;;;14.70;99.90;;;;;;6293217;22;20172;-77
2021/06/10 02:40:37;;;;;;;20.13;18.03;;;14.70;99.90;;;;;;6293936;22;20253;-78
2021/06/10 02:43:05;;;;;;;17.63;15.83;;;14.70;99.90;;;;;;6293805;22;20225;-77
2021/06/10 02:45:32;;;;;;;17.47;15.70;;;14.70;99.90;;;;;;6294185;22;20168;-80
2021/06/10 02:48:01;;;;;;;18.63;16.73;;;14.70;99.90;;;;;;6295452;22;20164;-80
2021/06/10 02:50:30;;;;;;;19.50;17.10;;;14.60;99.90;;;;;;6295152;22;20172;-80
2021/06/10 02:52:58;;;;;;;17.13;15.27;;;14.60;99.90;;;;;;6295040;22;20217;-79
2021/06/10 02:55:28;;;;;;;16.77;15.00;;;14.60;99.90;;;;;;6294050;22;20164;-80
2021/06/10 02:57:57;;;;;;;16.70;15.00;;;14.60;99.90;;;;;;6294985;22;20199;-80
2021/06/10 03:00:27;;;;;;;15.77;14.07;;;14.60;99.90;;;;;;6294189;22;20196;-80
2021/06/10 03:02:55;;;;;;;14.67;13.17;;;14.60;99.90;;;;;;6294823;22;20176;-80
2021/06/10 03:05:25;;;;;;;17.90;16.00;;;14.50;99.90;;;;;;6295186;22;20172;-81
2021/06/10 03:07:51;;;;;;;18.33;15.00;;;14.50;99.90;;;;;;6295419;22;20569;-81
2021/06/10 03:10:21;;;;;;;14.23;12.83;;;14.50;99.90;;;;;;6295898;22;20168;-80
2021/06/10 03:12:50;;;;;;;14.47;12.93;;;14.50;99.90;;;;;;6295342;22;20168;-81
2021/06/10 03:15:17;;;;;;;14.90;13.27;;;14.50;99.90;;;;;;6295660;22;20172;-79
2021/06/10 03:17:44;;;;;;;15.40;13.73;;;14.50;99.90;;;;;;6296719;22;20759;-81
2021/06/10 03:20:10;;;;;;;16.93;13.50;;;14.50;99.90;;;;;;6296529;22;20196;-78
2021/06/10 03:22:38;;;;;;;15.43;13.83;;;14.50;99.90;;;;;;6298342;22;20756;-80
2021/06/10 03:25:06;;;;;;;14.07;12.77;;;14.50;99.90;;;;;;6296839;22;20176;-81
2021/06/10 03:27:34;;;;;;;13.97;12.27;;;14.50;99.90;;;;;;6296850;22;20168;-80
2021/06/10 03:30:03;;;;;;;14.73;13.13;;;14.50;99.90;;;;;;6297377;22;20172;-80
2021/06/10 03:32:29;;;;;;;14.83;13.33;;;14.50;99.90;;;;;;6297241;22;20179;-80
2021/06/10 03:34:56;;;;;;;13.60;12.20;;;14.60;99.90;;;;;;6297095;22;20172;-80
2021/06/10 03:37:24;;;;;;;14.33;12.93;;;14.60;99.90;;;;;;6297261;22;20168;-78
2021/06/10 03:39:51;;;;;;;14.63;12.33;;;14.60;99.90;;;;;;6297568;22;20198;-76
2021/06/10 03:42:19;;;;;;;14.53;11.43;;;14.70;99.90;;;;;;6296657;22;20170;-81
2021/06/10 03:44:46;;;;;;;12.80;10.23;;;14.70;99.90;;;;;;6296978;22;20179;-80
2021/06/10 03:47:14;;;;;;;11.80;10.23;;;14.70;99.90;;;;;;6296292;22;20194;-81
2021/06/10 03:49:41;;;;;;;12.07;10.87;;;14.70;99.90;;;;;;6296438;22;20179;-79
2021/06/10 03:52:08;;;;;;;13.40;11.17;;;14.70;99.90;;;;;;6296758;22;20168;-80
2021/06/10 03:54:34;;;;;;;11.10;10.00;;;14.80;99.90;;;;;;6297247;22;20588;-81
2021/06/10 03:57:01;;;;;;;13.40;10.53;;;14.80;99.90;;;;;;6296095;22;20211;-78
2021/06/10 03:59:27;;;;;;;10.43;9.43;;;14.80;99.90;;;;;;6296748;22;20188;-78
2021/06/10 04:01:54;;;;;;;9.53;8.60;;;14.80;99.90;;;;;;6296607;22;20662;-80
2021/06/10 04:04:23;;;;;;;11.83;9.77;;;14.90;99.90;;;;;;6296734;22;20175;-78
2021/06/10 04:06:49;;;;;;;11.17;9.80;;;14.90;99.90;;;;;;6296369;22;20172;-77
2021/06/10 04:09:15;;;;;;;11.03;8.97;;;15.00;99.90;;;;;;6295775;22;20168;-76
2021/06/10 04:11:42;;;;;;;8.90;8.00;;;15.00;99.90;;;;;;6297541;22;20590;-79
2021/06/10 04:14:08;;;;;;;8.90;8.00;;;15.10;99.90;;;;;;6296761;22;20176;-77
2021/06/10 04:16:34;;;;;;;9.20;7.33;;;15.20;99.90;;;;;;6296244;22;20183;-76
2021/06/10 04:19:01;;;;;;;8.00;6.30;;;15.30;99.90;;;;;;6297331;22;20195;-75
2021/06/10 04:21:28;;;;;;;9.67;7.23;;;15.40;99.90;;;;;;6296386;22;20176;-75
2021/06/10 04:23:55;;;;;;;9.80;6.47;;;15.40;99.90;;;;;;6296266;22;20258;-80
2021/06/10 04:26:21;;;;;;;8.43;6.63;;;15.50;99.90;;;;;;6296737;22;20233;-78
2021/06/10 04:28:48;;;;;;;8.40;5.63;;;15.50;99.90;;;;;;6296139;22;20176;-80
2021/06/10 04:31:16;;;;;;;8.63;5.80;;;15.50;99.90;;;;;;6294877;22;20172;-81
2021/06/10 04:33:42;;;;;;;10.13;5.70;;;15.60;99.90;;;;;;6297116;22;20244;-79
2021/06/10 04:36:10;;;;;;;8.30;6.17;;;15.60;99.90;;;;;;6296097;22;20172;-80
2021/06/10 04:38:38;;;;;;;8.23;5.90;;;15.70;99.90;;;;;;6296003;22;20314;-79
2021/06/10 04:41:05;;;;;;;8.37;5.53;;;15.70;99.90;;;;;;6297338;22;20206;-80
2021/06/10 04:43:31;;;;;;;10.13;5.30;;;15.80;99.90;;;;;;6297362;22;20179;-80
2021/06/10 04:45:58;;;;;;;6.10;5.40;;;15.80;99.90;;;;;;6296072;22;20180;-77
2021/06/10 04:48:24;;;;;;;7.27;6.07;;;15.80;99.90;;;;;;6296572;22;20176;-75
2021/06/10 04:50:51;;;;;;;7.03;6.07;;;15.90;99.90;;;;;;6296555;22;20255;-76
2021/06/10 04:53:17;;;;;;;8.83;6.10;;;16.00;99.90;;;;;;6295895;22;20187;-75
2021/06/10 04:55:45;;;;;;;7.07;6.37;;;16.20;99.90;;;;;;6295790;22;20172;-81
2021/06/10 04:58:11;;;;;;;7.32;6.65;;;16.50;99.90;;;;;;6295213;22;20200;-79
2021/06/10 05:00:38;;;;;;;6.85;6.10;;;17.00;99.90;;;;;;6295838;22;20515;-77
2021/06/10 05:03:05;;;;;;;6.00;5.40;;;17.60;99.90;;;;;;6295783;22;20165;-77
2021/06/10 05:05:31;;;;;;;8.95;5.82;;;18.20;99.90;;;;;;6295219;22;20172;-78
2021/06/10 05:07:57;;;;;;;6.28;5.68;;;18.70;99.90;;;;;;6295540;22;20569;-79
2021/06/10 05:10:23;;;;;;;6.00;5.40;;;19.30;99.90;;;;;;6295180;22;20587;-79
2021/06/10 05:12:51;;;;;;;6.78;5.45;;;19.70;99.90;;;;;;6294678;22;20186;-79
2021/06/10 05:15:17;;;;;;;8.35;6.50;;;20.20;99.90;;;;;;6294732;22;20800;-79
2021/06/10 05:17:44;;;;;;;8.65;5.95;;;20.60;99.90;;;;;;6295078;22;20254;-76
2021/06/10 05:20:12;;;;;;;6.22;5.45;;;20.90;99.90;;;;;;6294979;22;20196;-76
2021/06/10 05:22:38;;;;;;;6.95;5.47;;;21.30;99.90;;;;;;6295129;22;20172;-75
2021/06/10 05:25:06;;;;;;;6.47;5.40;;;21.60;99.90;;;;;;6294474;22;20172;-77
2021/06/10 05:27:33;;;;;;;8.85;5.57;;;21.90;99.90;;;;;;6293351;22;20233;-79
2021/06/10 05:30:01;;;;;;;6.97;5.63;;;22.20;99.90;;;;;;6293982;22;20210;-77
2021/06/10 05:32:27;;;;;;;6.38;5.50;;;22.40;99.90;;;;;;6294972;22;20175;-80
2021/06/10 05:34:54;;;;;;;6.38;5.68;;;22.70;99.90;;;;;;6293730;22;20176;-78
2021/06/10 05:37:20;;;;;;;7.22;5.40;;;23.00;99.90;;;;;;6294182;22;20172;-76
2021/06/10 05:39:46;;;;;;;7.80;4.65;;;23.10;99.90;;;;;;6293728;22;20241;-78
2021/06/10 05:42:14;;;;;;;5.38;4.88;;;23.40;99.90;;;;;;6292745;22;20619;-76
2021/06/10 05:44:40;;;;;;;7.18;4.47;;;23.60;99.90;;;;;;6294389;22;20174;-77
2021/06/10 05:47:09;;;;;;;6.03;4.50;;;23.80;99.90;;;;;;6294156;22;20183;-77
2021/06/10 05:49:35;;;;;;;5.72;4.47;;;24.00;99.90;;;;;;6294039;22;20172;-77
2021/06/10 05:52:01;;;;;;;5.95;3.65;;;24.20;99.90;;;;;;6293200;22;20636;-78
2021/06/10 05:54:28;;;;;;;5.03;3.53;;;24.40;99.90;;;;;;6293574;22;21034;-76
2021/06/10 05:56:55;;;;;;;9.18;3.70;;;24.50;99.90;;;;;;6293009;22;20627;-79
2021/06/10 05:59:21;;;;;;;4.57;3.40;;;24.70;99.90;;;;;;6293407;22;20168;-78
2021/06/10 06:01:47;;;;;;;6.18;3.42;;;24.80;99.90;;;;;;6292185;22;20171;-76
2021/06/10 06:04:15;;;;;;;6.80;3.63;;;24.80;99.90;;;;;;6293471;22;20176;-77
2021/06/10 06:06:42;;;;;;;6.13;3.22;;;25.00;99.90;;;;;;6293964;22;20186;-80
2021/06/10 06:09:09;;;;;;;4.50;2.75;;;25.10;99.90;;;;;;6292917;22;20890;-77
2021/06/10 06:11:35;;;;;;;5.82;2.97;;;25.20;99.90;;;;;;6293629;22;20175;-77
2021/06/10 06:14:07;;;;;;;4.78;2.85;;;25.30;99.90;;;;;;6294240;22;20176;-80
2021/06/10 06:16:36;;;;;;;7.82;4.18;;;25.50;99.90;;;;;;6293221;22;20825;-77
2021/06/10 06:19:04;;;;;;;8.27;3.83;;;25.60;99.90;;;;;;6293714;22;20198;-76
2021/06/10 06:21:33;;;;;;;8.32;3.60;;;25.80;99.90;;;;;;6294052;22;20202;-79
2021/06/10 06:23:59;;;;;;;9.05;3.53;;;25.70;99.90;;;;;;6291817;22;20199;-76
2021/06/10 06:26:25;;;;;;;5.47;3.05;;;25.70;99.90;;;;;;6293970;22;20175;-77
2021/06/10 06:28:53;;;;;;;6.18;3.55;;;25.90;99.90;;;;;;6293407;22;20178;-80
2021/06/10 06:31:20;;;;;;;3.80;2.83;;;26.00;99.90;;;;;;6293173;22;20179;-79
2021/06/10 06:33:47;;;;;;;3.90;2.58;;;26.00;99.90;;;;;;6293475;22;20196;-77
2021/06/10 06:36:13;;;;;;;6.07;2.50;;;26.00;99.90;;;;;;6293405;22;20176;-78
2021/06/10 06:38:41;;;;;;;7.38;2.80;;;26.10;99.90;;;;;;6293876;22;20171;-77
2021/06/10 06:44:38;;;;;;;5.22;3.15;;;26.30;99.90;;;;;;6114235;23;20184;-81
2021/06/10 06:47:05;;;;;;;6.75;3.47;;;26.10;99.90;;;;;;6287022;22;20221;-81
2021/06/10 06:49:32;;;;;;;7.82;3.10;;;26.20;99.90;;;;;;6293345;22;20176;-78
2021/06/10 06:51:58;;;;;;;6.95;3.25;;;26.30;99.90;;;;;;6292914;22;20171;-78
2021/06/10 06:54:25;;;;;;;5.80;3.00;;;26.40;99.90;;;;;;6293337;22;20171;-77
2021/06/10 06:56:52;;;;;;;6.72;3.00;;;26.50;99.90;;;;;;6292549;22;20254;-76
2021/06/10 06:59:32;;;;;;;7.65;3.28;;;26.60;99.90;;;;;;6283639;22;20172;-79
2021/06/10 07:01:58;;;;;;;9.02;4.28;;;26.60;99.90;;;;;;6293205;22;20160;-78
2021/06/10 07:04:25;;;;;;;4.75;2.92;;;26.50;99.90;;;;;;6293120;22;20175;-78
2021/06/10 07:06:52;;;;;;;6.07;2.72;;;26.50;99.90;;;;;;6293009;22;20214;-80
2021/06/10 07:09:18;;;;;;;6.95;3.55;;;26.40;99.90;;;;;;6292253;22;20495;-82
2021/06/10 07:11:46;;;;;;;5.70;3.50;;;26.50;99.90;;;;;;6293057;22;20168;-81
2021/06/10 07:14:13;;;;;;;6.65;3.50;;;26.30;99.90;;;;;;6292882;22;20592;-78
2021/06/10 07:16:41;;;;;;;11.65;3.58;;;26.40;99.90;;;;;;6293699;22;20187;-77
2021/06/10 07:19:07;;;;;;;6.97;3.20;;;26.40;99.90;;;;;;6292683;22;20192;-80
2021/06/10 07:21:44;;;;;;;10.85;4.15;;;26.50;99.90;;;;;;6293446;22;20202;-78
2021/06/10 07:24:11;;;;;;;7.28;3.60;;;26.70;99.90;;;;;;6292497;22;20176;-77
2021/06/10 07:26:38;;;;;;;14.70;5.72;;;26.80;99.90;;;;;;6293309;22;20706;-78
2021/06/10 07:29:06;;;;;;;15.40;6.13;;;27.00;99.90;;;;;;6292746;22;20172;-79
2021/06/10 07:31:32;;;;;;;12.20;5.30;;;27.00;99.90;;;;;;6293128;22;20176;-80
2021/06/10 07:33:59;;;;;;;11.05;6.57;;;27.10;99.90;;;;;;6291090;22;20168;-78
2021/06/10 07:36:26;;;;;;;10.43;6.15;;;27.40;99.90;;;;;;6292817;22;20548;-76
2021/06/10 07:38:52;;;;;;;14.90;7.10;;;27.50;99.90;;;;;;6292714;22;20172;-77
2021/06/10 07:41:18;;;;;;;11.73;6.47;;;27.10;99.90;;;;;;6292339;22;20191;-79
2021/06/10 07:43:44;;;;;;;12.70;6.55;;;27.10;99.90;;;;;;6293280;22;20179;-78
2021/06/10 07:46:12;;;;;;;11.65;6.40;;;27.00;99.90;;;;;;6293969;22;20172;-76
2021/06/10 07:48:39;;;;;;;13.30;6.07;;;27.20;99.90;;;;;;6292599;22;20179;-80
2021/06/10 07:51:06;;;;;;;13.85;5.35;;;27.50;99.90;;;;;;6293390;22;20168;-76
2021/06/10 07:53:33;;;;;;;12.30;5.45;;;27.50;99.90;;;;;;6292898;22;20211;-79
2021/06/10 07:55:59;;;;;;;12.63;6.13;;;27.70;99.90;;;;;;6292250;22;20175;-77
2021/06/10 07:58:26;;;;;;;15.15;6.07;;;27.80;99.90;;;;;;6292794;22;20195;-79
2021/06/10 08:00:52;;;;;;;18.83;7.22;;;27.90;99.90;;;;;;6292482;22;20200;-78
2021/06/10 08:03:20;;;;;;;18.42;6.55;;;28.20;99.90;;;;;;6291129;22;20191;-78
2021/06/10 08:05:47;;;;;;;14.68;6.60;;;28.40;99.90;;;;;;6294474;22;20170;-77
2021/06/10 08:08:13;;;;;;;15.93;6.95;;;28.60;99.90;;;;;;6293800;22;20462;-77
2021/06/10 08:10:40;;;;;;;16.88;7.10;;;28.70;99.90;;;;;;6295252;22;20234;-77
2021/06/10 08:13:08;;;;;;;14.82;6.97;;;28.70;99.90;;;;;;6294620;22;20172;-78
2021/06/10 08:15:34;;;;;;;17.17;7.20;;;28.90;99.90;;;;;;6293869;22;20631;-77
2021/06/10 08:18:01;;;;;;;14.85;6.65;;;29.10;99.90;;;;;;6294482;22;20187;-76
2021/06/10 08:20:30;;;;;;;18.00;7.10;;;29.20;99.90;;;;;;6293805;22;20237;-77
2021/06/10 08:22:59;;;;;;;16.23;7.00;;;29.30;99.90;;;;;;6293487;22;20172;-81
2021/06/10 08:25:28;;;;;;;14.95;7.28;;;29.40;99.90;;;;;;6294997;22;20689;-80
2021/06/10 08:27:55;;;;;;;22.73;8.57;;;29.40;99.90;;;;;;6293188;22;20920;-79
2021/06/10 08:30:22;;;;;;;15.18;7.80;;;29.50;99.90;;;;;;6294141;22;20586;-80
2021/06/10 08:32:48;;;;;;;16.88;7.88;;;29.50;99.90;;;;;;6292513;22;20176;-78
2021/06/10 08:35:14;;;;;;;16.30;8.00;;;29.30;99.90;;;;;;6294394;22;20172;-79
2021/06/10 08:37:42;;;;;;;15.80;7.53;;;29.30;99.90;;;;;;6294698;22;20176;-81
2021/06/10 08:40:10;;;;;;;14.23;7.60;;;29.30;99.90;;;;;;6294451;22;20192;-81
2021/06/10 08:42:37;;;;;;;17.88;7.28;;;29.50;99.90;;;;;;6295061;22;20230;-78
2021/06/10 08:45:05;;;;;;;17.27;6.82;;;29.60;99.90;;;;;;6294127;22;20172;-81
2021/06/10 08:47:33;;;;;;;14.35;7.30;;;29.70;99.90;;;;;;6294171;22;20202;-80
2021/06/10 08:50:03;;;;;;;14.45;6.22;;;29.70;99.90;;;;;;6294405;22;20176;-77
2021/06/10 08:52:30;;;;;;;12.25;6.15;;;29.90;99.90;;;;;;6294710;22;20178;-77
2021/06/10 08:54:58;;;;;;;18.10;6.45;;;30.00;99.90;;;;;;6293361;22;20176;-75
2021/06/10 08:57:25;;;;;;;14.93;7.32;;;30.00;99.90;;;;;;6292942;22;20199;-79
2021/06/10 08:59:51;;;;;;;9.63;5.90;;;30.00;99.90;;;;;;6293882;22;20185;-77
2021/06/10 09:02:17;;;;;;;9.40;6.30;;;30.20;99.90;;;;;;6289236;22;20218;-78
2021/06/10 09:04:44;;;;;;;18.08;7.75;;;30.20;99.90;;;;;;6293223;22;20255;-78
2021/06/10 09:07:10;;;;;;;11.60;5.90;;;30.30;99.90;;;;;;6294209;22;20225;-78
2021/06/10 09:09:38;;;;;;;12.52;6.13;;;30.50;99.90;;;;;;6294339;22;20178;-78
2021/06/10 09:12:08;;;;;;;8.57;4.82;;;30.40;99.90;;;;;;6294263;22;20229;-78
2021/06/10 09:14:52;;;;;;;9.35;5.72;;;30.50;99.90;;;;;;6294136;22;20187;-77
2021/06/10 09:17:29;;;;;;;11.20;5.43;;;30.50;99.90;;;;;;6294354;22;20275;-78
2021/06/10 09:19:55;;;;;;;10.57;4.57;;;30.70;99.90;;;;;;6293287;22;20211;-78
2021/06/10 09:22:26;;;;;;;9.30;4.63;;;30.70;99.90;;;;;;6293904;22;20479;-78
2021/06/10 09:24:52;;;;;;;18.00;5.43;;;30.90;99.90;;;;;;6294464;22;20178;-78
2021/06/10 09:27:20;;;;;;;13.98;8.00;;;31.00;99.90;;;;;;6293973;22;20183;-81
2021/06/10 09:29:49;;;;;;;11.75;6.40;;;31.00;99.90;;;;;;6293635;22;20451;-79
2021/06/10 09:32:19;;;;;;;10.35;6.25;;;31.10;99.90;;;;;;6293060;22;20246;-76
2021/06/10 09:34:48;;;;;;;13.02;7.10;;;31.20;99.90;;;;;;6293210;22;20171;-78
2021/06/10 09:37:27;;;;;;;10.88;6.47;;;31.10;99.90;;;;;;6291247;22;20229;-80
2021/06/10 09:39:55;;;;;;;10.95;5.00;;;30.90;99.90;;;;;;6292986;22;20548;-79
2021/06/10 09:42:28;;;;;;;8.45;4.88;;;30.70;99.90;;;;;;6294178;22;20175;-78
2021/06/10 09:44:57;;;;;;;8.70;3.95;;;30.60;99.90;;;;;;6293164;22;20179;-78
2021/06/10 09:47:35;;;;;;;8.70;3.80;;;30.70;99.90;;;;;;6292954;22;20180;-79
2021/06/10 09:50:20;;;;;;;6.68;4.00;;;30.80;99.90;;;;;;6293089;22;20179;-77
2021/06/10 09:52:48;;;;;;;9.52;4.38;;;30.60;99.90;;;;;;6292790;22;20168;-80
2021/06/10 09:55:33;;;;;;;8.25;3.85;;;30.70;99.90;;;;;;6292490;22;20180;-74
2021/06/10 09:58:20;;;;;;;6.90;3.92;;;30.50;99.90;;;;;;6292776;22;20261;-75
2021/06/10 10:00:50;;;;;;;13.20;4.03;;;30.40;99.90;;;;;;6292460;22;20235;-76
2021/06/10 10:03:43;;;;;;;5.30;3.63;;;30.20;99.90;;;;;;6292593;22;20171;-78
2021/06/10 10:06:23;;;;;;;10.15;4.70;;;30.30;99.90;;;;;;6293352;22;20163;-74
2021/06/10 10:08:52;;;;;;;9.05;4.45;;;30.20;99.90;;;;;;6292250;22;20608;-74
2021/06/10 10:11:18;;;;;;;13.73;5.18;;;29.90;99.90;;;;;;6292348;22;20255;-75
2021/06/10 10:13:49;;;;;;;16.00;6.18;;;29.60;99.90;;;;;;6292527;22;20179;-74
2021/06/10 10:16:15;;;;;;;11.85;5.63;;;29.50;99.90;;;;;;6292261;22;20429;-75
2021/06/10 10:18:44;;;;;;;10.90;4.75;;;29.30;99.90;;;;;;6293143;22;20266;-76
2021/06/10 10:21:11;;;;;;;11.63;4.63;;;29.10;99.90;;;;;;6292404;22;20253;-75
2021/06/10 10:23:37;;;;;;;7.18;4.53;;;29.10;99.90;;;;;;6292127;22;20183;-76
2021/06/10 10:26:05;;;;;;;8.65;6.10;;;29.00;99.90;;;;;;6291886;22;20178;-74
2021/06/10 10:28:34;;;;;;;10.43;6.82;;;29.00;99.90;;;;;;6292023;22;20175;-75
2021/06/10 10:31:03;;;;;;;9.55;6.35;;;29.00;99.90;;;;;;6292619;22;20241;-74
2021/06/10 10:33:30;;;;;;;12.18;5.93;;;29.00;99.90;;;;;;6292538;22;20172;-76
2021/06/10 10:35:58;;;;;;;11.20;6.53;;;29.10;99.90;;;;;;6292280;22;20175;-78
2021/06/10 10:38:30;;;;;;;8.82;5.85;;;29.10;99.90;;;;;;6292413;22;20700;-78
2021/06/10 10:41:04;;;;;;;8.25;5.82;;;29.10;99.90;;;;;;6292387;22;20184;-77
2021/06/10 10:43:32;;;;;;;11.82;5.78;;;29.10;99.90;;;;;;6291939;22;20221;-78
2021/06/10 10:46:11;;;;;;;13.68;6.10;;;29.30;99.90;;;;;;6292259;22;20172;-76
2021/06/10 10:48:39;;;;;;;8.93;5.05;;;29.40;99.90;;;;;;6293150;22;20186;-75
2021/06/10 10:51:30;;;;;;;7.93;5.18;;;29.50;99.90;;;;;;6291664;22;20175;-76
2021/06/10 10:53:59;;;;;;;10.55;6.60;;;29.40;99.90;;;;;;6292806;22;20194;-76
2021/06/10 10:56:36;;;;;;;13.60;6.90;;;29.40;99.90;;;;;;6291939;22;20226;-77
2021/06/10 10:59:10;;;;;;;12.55;5.63;;;29.30;99.90;;;;;;6291734;22;20522;-76
2021/06/10 11:01:38;;;;;;;10.98;5.35;;;29.40;99.90;;;;;;6293031;22;20195;-77
2021/06/10 11:04:05;;;;;;;9.32;5.50;;;29.70;99.90;;;;;;6291946;22;20172;-77
2021/06/10 11:06:33;;;;;;;6.78;3.80;;;29.70;99.90;;;;;;6292592;22;20211;-79
2021/06/10 11:09:06;;;;;;;16.73;7.00;;;29.80;99.90;;;;;;6292068;22;20236;-78
2021/06/10 11:12:10;;;;;;;16.02;4.63;;;29.60;99.90;;;;;;6291601;22;20167;-78
2021/06/10 11:14:39;;;;;;;9.32;5.80;;;29.40;99.90;;;;;;6293074;22;20171;-77
2021/06/10 11:17:18;;;;;;;11.55;5.15;;;29.50;99.90;;;;;;6292967;22;20206;-77
2021/06/10 11:19:59;;;;;;;11.07;5.72;;;29.50;99.90;;;;;;6293092;22;20164;-77
2021/06/10 11:22:38;;;;;;;10.63;5.65;;;29.50;99.90;;;;;;6293507;22;20167;-78
2021/06/10 11:25:07;;;;;;;14.00;6.03;;;29.40;99.90;;;;;;6292495;22;20168;-77
2021/06/10 11:27:36;;;;;;;10.57;5.28;;;29.50;99.90;;;;;;6292252;22;20172;-79
2021/06/10 11:30:15;;;;;;;11.15;5.90;;;29.60;99.90;;;;;;6292874;22;20172;-76
2021/06/10 11:33:06;;;;;;;12.10;6.57;;;29.70;99.90;;;;;;6292950;22;20199;-78
2021/06/10 11:35:38;;;;;;;15.40;6.57;;;29.70;99.90;;;;;;6293021;22;20172;-77
2021/06/10 11:38:11;;;;;;;12.82;7.18;;;29.70;99.90;;;;;;6294441;22;20508;-75
2021/06/10 11:40:37;;;;;;;16.73;7.47;;;29.70;99.90;;;;;;6295069;22;20184;-77
2021/06/10 11:43:06;;;;;;;18.25;7.03;;;29.70;99.90;;;;;;6295530;22;20175;-77
2021/06/10 11:45:32;;;;;;;16.52;9.20;;;29.50;99.90;;;;;;6294998;22;20323;-74
2021/06/10 11:47:58;;;;;;;18.90;9.27;;;29.60;99.90;;;;;;6294508;22;20867;-75
2021/06/10 11:50:29;;;;;;;14.85;7.20;;;29.70;99.90;;;;;;6295204;22;20168;-78
2021/06/10 11:52:57;;;;;;;15.68;7.75;;;29.80;99.90;;;;;;6293821;22;20168;-79
2021/06/10 11:55:30;;;;;;;17.88;7.78;;;29.80;99.90;;;;;;6295616;22;20172;-78
2021/06/10 11:58:00;;;;;;;14.43;7.55;;;30.00;99.90;;;;;;6294433;22;20196;-74
2021/06/10 12:00:30;;;;;;;13.88;6.35;;;30.00;99.90;;;;;;6294207;22;20196;-78
2021/06/10 12:02:57;;;;;;;7.90;6.57;;;30.10;99.90;;;;;;6295189;22;20172;-78
2021/06/10 12:05:25;;;;;;;8.25;5.93;;;29.90;99.90;;;;;;6294697;22;20194;-75
2021/06/10 12:08:06;;;;;;;9.80;5.57;;;30.00;99.90;;;;;;6294164;22;20642;-75
2021/06/10 12:10:32;;;;;;;8.00;4.40;;;29.80;99.90;;;;;;6295370;22;20191;-78
2021/06/10 12:12:59;;;;;;;5.25;3.90;;;30.00;99.90;;;;;;6294642;22;20176;-80
2021/06/10 12:15:32;;;;;;;11.30;4.50;;;30.00;99.90;;;;;;6294152;22;20192;-77
2021/06/10 12:18:00;;;;;;;9.55;4.00;;;30.20;99.90;;;;;;6294656;22;20196;-79
2021/06/10 12:20:28;;;;;;;8.48;4.05;;;30.20;99.90;;;;;;6295013;22;20192;-80
2021/06/10 12:22:56;;;;;;;10.55;7.35;;;30.40;99.90;;;;;;6294105;22;20172;-76
2021/06/10 12:25:25;;;;;;;28.13;10.05;;;30.30;99.90;;;;;;6294644;22;20176;-75
2021/06/10 12:27:52;;;;;;;13.55;6.53;;;30.40;99.90;;;;;;6295037;22;20172;-78
2021/06/10 12:30:30;;;;;;;8.02;5.55;;;30.20;99.90;;;;;;6293943;22;20755;-78
2021/06/10 12:33:14;;;;;;;10.00;7.28;;;30.30;99.90;;;;;;6294172;22;20678;-78
2021/06/10 12:35:43;;;;;;;8.13;5.20;;;30.20;99.90;;;;;;6294596;22;20168;-79
2021/06/10 12:38:11;;;;;;;18.45;7.93;;;30.00;99.90;;;;;;6294103;22;20183;-75
2021/06/10 12:40:40;;;;;;;7.60;5.18;;;29.90;99.90;;;;;;6294771;22;20207;-74
2021/06/10 12:43:10;;;;;;;6.50;4.20;;;29.80;99.90;;;;;;6293643;22;20601;-73
2021/06/10 12:45:38;;;;;;;7.32;3.63;;;30.00;99.90;;;;;;6295230;22;20172;-79
2021/06/10 12:48:23;;;;;;;10.98;4.13;;;30.00;99.90;;;;;;6294859;22;20180;-75
2021/06/10 12:50:50;;;;;;;4.32;3.42;;;30.30;99.90;;;;;;6293253;22;20210;-75